createdAt,value
2022-09-12T00:00:02.112Z,1.67
2022-09-12T00:02:39.630Z,1.80
2022-09-12T00:05:07.895Z,2.08
2022-09-12T00:07:35.684Z,2.00
2022-09-12T00:10:03.596Z,1.80
2022-09-12T00:12:31.367Z,2.00
2022-09-12T00:14:59.172Z,2.17
2022-09-12T00:17:28.260Z,2.28
2022-09-12T00:19:56.158Z,1.90
2022-09-12T00:22:23.872Z,2.30
2022-09-12T00:24:51.740Z,2.20
2022-09-12T00:27:19.480Z,2.25
2022-09-12T00:29:47.276Z,2.00
2022-09-12T00:32:15.137Z,2.05
2022-09-12T00:34:44.259Z,2.00
2022-09-12T00:37:12.188Z,2.50
2022-09-12T00:39:40.276Z,2.03
2022-09-12T00:42:08.057Z,2.03
2022-09-12T00:44:49.311Z,2.38
2022-09-12T00:47:19.057Z,2.20
2022-09-12T00:49:50.560Z,2.25
2022-09-12T00:52:20.766Z,2.40
2022-09-12T00:54:51.547Z,2.20
2022-09-12T00:57:20.286Z,2.67
2022-09-12T00:59:50.456Z,2.10
2022-09-12T01:02:18.382Z,2.70
2022-09-12T01:04:47.943Z,2.33
2022-09-12T01:07:17.379Z,2.15
2022-09-12T01:09:45.939Z,2.10
2022-09-12T01:12:14.738Z,2.03
2022-09-12T01:14:43.082Z,2.40
2022-09-12T01:17:12.882Z,2.03
2022-09-12T01:19:56.024Z,2.10
2022-09-12T01:22:34.194Z,2.53
2022-09-12T01:25:06.840Z,2.53
2022-09-12T01:27:58.285Z,2.47
2022-09-12T01:30:44.110Z,2.40
2022-09-12T01:33:25.090Z,2.30
2022-09-12T01:35:57.985Z,2.13
2022-09-12T01:38:29.218Z,2.97
2022-09-12T01:41:00.742Z,2.50
2022-09-12T01:43:32.469Z,2.35
2022-09-12T01:46:02.561Z,2.60
2022-09-12T01:48:35.900Z,2.50
2022-09-12T01:51:07.598Z,2.50
2022-09-12T01:53:37.820Z,2.15
2022-09-12T01:56:09.428Z,2.58
2022-09-12T01:58:40.762Z,2.22
2022-09-12T02:01:10.317Z,2.20
2022-09-12T02:03:44.873Z,2.67
2022-09-12T02:06:16.223Z,2.53
2022-09-12T02:08:47.330Z,1.77
2022-09-12T02:11:15.158Z,1.88
2022-09-12T02:13:44.477Z,2.28
2022-09-12T02:16:14.371Z,2.22
2022-09-12T02:18:45.995Z,1.85
2022-09-12T02:21:14.420Z,2.60
2022-09-12T02:23:43.977Z,2.42
2022-09-12T02:26:13.741Z,2.65
2022-09-12T02:28:43.040Z,2.25
2022-09-12T02:31:14.467Z,2.42
2022-09-12T02:33:46.842Z,2.03
2022-09-12T02:36:24.623Z,2.95
2022-09-12T02:38:52.481Z,2.70
2022-09-12T02:41:21.738Z,3.08
2022-09-12T02:43:50.259Z,2.95
2022-09-12T02:46:19.791Z,2.80
2022-09-12T02:48:49.118Z,3.63
2022-09-12T02:51:20.386Z,3.00
2022-09-12T02:53:51.713Z,3.45
2022-09-12T02:56:22.435Z,2.90
2022-09-12T02:58:50.457Z,3.28
2022-09-12T03:01:25.291Z,4.53
2022-09-12T03:04:01.481Z,3.35
2022-09-12T03:06:34.359Z,4.15
2022-09-12T03:09:07.313Z,3.85
2022-09-12T03:11:43.116Z,4.30
2022-09-12T03:14:16.403Z,3.70
2022-09-12T03:16:46.908Z,4.47
2022-09-12T03:19:21.448Z,3.53
2022-09-12T03:21:54.127Z,3.97
2022-09-12T03:24:24.093Z,4.35
2022-09-12T03:26:55.368Z,4.03
2022-09-12T03:29:24.951Z,3.88
2022-09-12T03:31:53.647Z,3.67
2022-09-12T03:34:23.403Z,3.88
2022-09-12T03:36:52.247Z,3.45
2022-09-12T03:39:20.464Z,3.47
2022-09-12T03:41:48.448Z,3.20
2022-09-12T03:44:16.222Z,3.40
2022-09-12T03:46:43.926Z,3.72
2022-09-12T03:49:11.915Z,3.20
2022-09-12T03:51:41.319Z,4.70
2022-09-12T03:54:09.014Z,3.50
2022-09-12T03:59:06.006Z,3.58
2022-09-12T04:01:34.150Z,3.58
2022-09-12T04:04:01.994Z,4.13
2022-09-12T04:06:29.804Z,3.58
2022-09-12T04:08:58.974Z,4.07
2022-09-12T04:11:26.797Z,4.22
2022-09-12T04:13:54.507Z,4.20
2022-09-12T04:16:22.538Z,5.75
2022-09-12T04:18:50.334Z,4.05
2022-09-12T04:21:18.771Z,3.55
2022-09-12T04:23:46.560Z,3.90
2022-09-12T04:26:17.790Z,3.55
2022-09-12T04:28:46.847Z,3.20
2022-09-12T04:31:17.676Z,3.30
2022-09-12T04:33:45.893Z,3.17
2022-09-12T04:36:16.817Z,3.50
2022-09-12T04:38:45.396Z,3.55
2022-09-12T04:41:13.812Z,3.90
2022-09-12T04:43:43.587Z,3.35
2022-09-12T04:46:12.427Z,3.92
2022-09-12T04:48:40.473Z,3.78
2022-09-12T04:51:09.007Z,3.53
2022-09-12T04:53:37.041Z,4.57
2022-09-12T04:56:05.225Z,4.07
2022-09-12T04:58:33.551Z,3.72
2022-09-12T05:01:06.649Z,3.72
2022-09-12T05:03:34.483Z,3.97
2022-09-12T05:06:03.205Z,3.45
2022-09-12T05:08:31.182Z,4.07
2022-09-12T05:11:03.842Z,3.90
2022-09-12T05:13:31.888Z,3.70
2022-09-12T05:16:00.317Z,3.72
2022-09-12T05:18:30.214Z,3.95
2022-09-12T05:21:00.268Z,3.70
2022-09-12T05:23:28.045Z,3.95
2022-09-12T05:25:57.663Z,4.03
2022-09-12T05:28:26.235Z,4.22
2022-09-12T05:31:02.021Z,3.60
2022-09-12T05:33:31.846Z,3.72
2022-09-12T05:35:59.874Z,4.05
2022-09-12T05:38:29.141Z,4.38
2022-09-12T05:41:03.809Z,4.53
2022-09-12T05:43:32.255Z,4.72
2022-09-12T05:46:03.835Z,4.20
2022-09-12T05:48:34.467Z,3.88
2022-09-12T05:51:03.112Z,4.00
2022-09-12T05:53:31.066Z,3.90
2022-09-12T05:56:06.052Z,4.28
2022-09-12T05:58:33.970Z,3.78
2022-09-12T06:01:08.820Z,4.63
2022-09-12T06:03:41.032Z,4.10
2022-09-12T06:06:09.036Z,4.97
2022-09-12T06:08:37.543Z,4.10
2022-09-12T06:11:06.278Z,3.78
2022-09-12T06:13:34.207Z,4.18
2022-09-12T06:16:06.283Z,4.22
2022-09-12T06:18:34.160Z,4.32
2022-09-12T06:21:05.090Z,4.10
2022-09-12T06:23:32.875Z,4.95
2022-09-12T06:26:00.767Z,4.50
2022-09-12T06:28:28.492Z,5.20
2022-09-12T06:31:02.209Z,4.80
2022-09-12T06:33:30.229Z,4.60
2022-09-12T06:36:02.863Z,4.47
2022-09-12T06:38:32.302Z,4.68
2022-09-12T06:41:00.473Z,4.90
2022-09-12T06:43:29.590Z,5.07
2022-09-12T06:45:57.713Z,5.38
2022-09-12T06:48:25.863Z,5.05
2022-09-12T06:50:57.185Z,5.70
2022-09-12T06:53:25.137Z,7.15
2022-09-12T06:55:58.096Z,4.35
2022-09-12T06:58:26.248Z,4.80
2022-09-12T07:00:58.952Z,5.40
2022-09-12T07:03:26.883Z,4.60
2022-09-12T07:05:54.645Z,4.65
2022-09-12T07:08:22.550Z,4.28
2022-09-12T07:10:50.394Z,4.50
2022-09-12T07:13:21.630Z,4.10
2022-09-12T07:15:49.523Z,4.43
2022-09-12T07:18:17.462Z,4.63
2022-09-12T07:20:45.232Z,4.20
2022-09-12T07:23:13.099Z,5.07
2022-09-12T07:25:41.216Z,4.32
2022-09-12T07:28:09.033Z,4.35
2022-09-12T07:30:39.580Z,5.05
2022-09-12T07:33:07.534Z,4.28
2022-09-12T07:35:35.411Z,4.93
2022-09-12T07:38:03.358Z,4.78
2022-09-12T07:40:31.133Z,4.93
2022-09-12T07:42:58.894Z,4.70
2022-09-12T07:45:26.890Z,3.95
2022-09-12T07:47:56.385Z,3.05
2022-09-12T07:50:24.368Z,3.72
2022-09-12T07:52:52.922Z,3.17
2022-09-12T07:55:20.674Z,3.25
2022-09-12T07:57:50.565Z,3.10
2022-09-12T08:00:18.804Z,2.97
2022-09-12T08:02:46.663Z,3.28
2022-09-12T08:05:15.982Z,3.28
2022-09-12T08:07:43.803Z,3.30
2022-09-12T08:10:11.685Z,3.20
2022-09-12T08:12:39.556Z,3.50
2022-09-12T08:15:08.596Z,2.92
2022-09-12T08:17:36.371Z,3.13
2022-09-12T08:20:05.414Z,2.97
2022-09-12T08:22:34.664Z,4.53
2022-09-12T08:25:02.420Z,3.30
2022-09-12T08:27:30.145Z,3.35
2022-09-12T08:29:57.937Z,3.30
2022-09-12T08:32:25.690Z,3.63
2022-09-12T08:34:53.779Z,4.53
2022-09-12T08:37:21.615Z,3.88
2022-09-12T08:39:52.879Z,3.72
2022-09-12T08:42:24.463Z,3.72
2022-09-12T08:44:56.509Z,3.40
2022-09-12T08:47:27.831Z,3.63
2022-09-12T08:50:00.512Z,3.25
2022-09-12T08:52:30.324Z,3.63
2022-09-12T08:54:59.577Z,3.70
2022-09-12T08:57:27.551Z,3.22
2022-09-12T08:59:55.511Z,4.18
2022-09-12T09:02:34.533Z,3.35
2022-09-12T09:05:06.004Z,3.40
2022-09-12T09:07:55.695Z,3.17
2022-09-12T09:10:28.479Z,3.00
2022-09-12T09:13:01.967Z,2.83
2022-09-12T09:15:34.204Z,3.40
2022-09-12T09:18:04.201Z,3.10
2022-09-12T09:20:36.643Z,2.90
2022-09-12T09:23:08.487Z,2.78
2022-09-12T09:25:42.160Z,3.00
2022-09-12T09:28:13.775Z,3.20
2022-09-12T09:30:44.077Z,2.50
2022-09-12T09:33:19.630Z,3.10
2022-09-12T09:35:48.924Z,2.80
2022-09-12T09:38:24.030Z,2.75
2022-09-12T09:40:59.315Z,2.70
2022-09-12T09:43:29.105Z,2.20
2022-09-12T09:45:57.957Z,2.20
2022-09-12T09:48:28.718Z,2.30
2022-09-12T09:50:58.746Z,2.42
2022-09-12T09:53:41.425Z,3.38
2022-09-12T09:56:14.013Z,2.53
2022-09-12T09:58:42.784Z,2.10
2022-09-12T10:01:15.309Z,2.17
2022-09-12T10:03:48.974Z,2.10
2022-09-12T10:06:25.487Z,2.22
2022-09-12T10:09:04.549Z,2.50
2022-09-12T10:11:34.038Z,2.17
2022-09-12T10:14:02.009Z,2.10
2022-09-12T10:16:30.868Z,1.90
2022-09-12T10:18:59.771Z,2.28
2022-09-12T10:21:32.910Z,2.28
2022-09-12T10:24:12.439Z,2.90
2022-09-12T10:26:42.865Z,2.28
2022-09-12T10:29:16.554Z,2.28
2022-09-12T10:31:46.739Z,2.10
2022-09-12T10:34:26.051Z,2.10
2022-09-12T10:36:56.000Z,1.90
2022-09-12T10:39:24.072Z,1.70
2022-09-12T10:41:53.145Z,2.65
2022-09-12T10:44:26.195Z,2.20
2022-09-12T10:46:54.409Z,2.47
2022-09-12T10:49:24.224Z,2.25
2022-09-12T10:51:52.897Z,2.70
2022-09-12T10:54:23.007Z,2.67
2022-09-12T10:57:03.437Z,1.98
2022-09-12T10:59:35.125Z,1.83
2022-09-12T11:02:11.300Z,2.08
2022-09-12T11:04:45.758Z,2.10
2022-09-12T11:07:25.456Z,2.40
2022-09-12T11:09:57.355Z,2.53
2022-09-12T11:12:31.277Z,2.47
2022-09-12T11:15:04.819Z,1.98
2022-09-12T11:17:38.062Z,2.20
2022-09-12T11:20:22.752Z,2.10
2022-09-12T11:23:00.370Z,1.80
2022-09-12T11:25:31.087Z,2.65
2022-09-12T11:28:07.526Z,2.10
2022-09-12T11:30:38.817Z,1.90
2022-09-12T11:33:11.910Z,2.63
2022-09-12T11:35:44.475Z,2.28
2022-09-12T11:38:27.171Z,2.00
2022-09-12T11:40:56.620Z,2.28
2022-09-12T11:43:36.863Z,2.45
2022-09-12T11:46:08.164Z,2.28
2022-09-12T11:48:39.874Z,2.22
2022-09-12T11:51:16.479Z,2.42
2022-09-12T11:53:45.264Z,2.35
2022-09-12T11:56:16.792Z,1.98
2022-09-12T11:58:49.329Z,2.10
2022-09-12T12:01:19.506Z,2.30
2022-09-12T12:03:47.945Z,1.70
2022-09-12T12:06:19.588Z,2.63
2022-09-12T12:08:48.196Z,3.22
2022-09-12T12:11:16.734Z,2.22
2022-09-12T12:13:51.101Z,1.95
2022-09-12T12:16:22.334Z,2.13
2022-09-12T12:18:55.027Z,2.00
2022-09-12T12:21:32.689Z,2.38
2022-09-12T12:24:04.865Z,2.47
2022-09-12T12:26:44.034Z,2.53
2022-09-12T12:29:14.323Z,2.13
2022-09-12T12:32:02.010Z,2.05
2022-09-12T12:34:31.498Z,2.15
2022-09-12T12:37:03.148Z,2.10
2022-09-12T12:39:49.425Z,2.30
2022-09-12T12:42:35.998Z,1.95
2022-09-12T12:45:25.232Z,3.70
2022-09-12T12:47:54.146Z,1.80
2022-09-12T12:50:23.482Z,1.98
2022-09-12T12:52:53.122Z,2.35
2022-09-12T12:55:26.465Z,2.00
2022-09-12T12:57:55.224Z,2.05
2022-09-12T13:00:34.588Z,2.10
2022-09-12T13:03:03.419Z,2.20
2022-09-12T13:05:39.572Z,1.90
2022-09-12T13:08:10.163Z,2.05
2022-09-12T13:10:38.265Z,1.83
2022-09-12T13:13:08.712Z,1.48
2022-09-12T13:15:51.519Z,1.77
2022-09-12T13:18:23.612Z,1.80
2022-09-12T13:20:53.507Z,1.80
2022-09-12T13:23:22.939Z,2.08
2022-09-12T13:25:54.032Z,1.60
2022-09-12T13:28:21.798Z,1.67
2022-09-12T13:30:57.295Z,1.90
2022-09-12T13:33:29.167Z,2.03
2022-09-12T13:36:08.695Z,1.92
2022-09-12T13:38:43.987Z,1.95
2022-09-12T13:41:20.108Z,1.77
2022-09-12T13:43:48.635Z,1.80
2022-09-12T13:46:19.731Z,1.73
2022-09-12T13:48:47.928Z,1.60
2022-09-12T13:51:22.687Z,1.60
2022-09-12T13:53:50.760Z,1.75
2022-09-12T13:56:19.238Z,1.88
2022-09-12T13:58:54.846Z,1.83
2022-09-12T14:01:24.390Z,1.63
2022-09-12T14:04:10.627Z,1.58
2022-09-12T14:06:45.147Z,2.00
2022-09-12T14:09:14.616Z,1.67
2022-09-12T14:11:43.132Z,2.00
2022-09-12T14:14:20.127Z,1.50
2022-09-12T14:16:50.251Z,1.52
2022-09-12T14:19:19.336Z,1.20
2022-09-12T14:21:47.171Z,1.42
2022-09-12T14:24:15.138Z,1.38
2022-09-12T14:26:44.914Z,1.70
2022-09-12T14:29:16.712Z,1.65
2022-09-12T14:31:44.707Z,1.52
2022-09-12T14:34:15.680Z,1.30
2022-09-12T14:36:47.993Z,1.55
2022-09-12T14:39:24.424Z,1.27
2022-09-12T14:41:53.172Z,1.52
2022-09-12T14:44:24.295Z,1.10
2022-09-12T14:46:52.484Z,1.25
2022-09-12T14:49:24.677Z,1.00
2022-09-12T14:51:56.862Z,1.25
2022-09-12T14:54:38.815Z,1.30
2022-09-12T14:57:07.391Z,1.48
2022-09-12T14:59:39.156Z,0.95
2022-09-12T15:02:20.888Z,0.95
2022-09-12T15:04:50.896Z,1.10
2022-09-12T15:07:24.270Z,1.05
2022-09-12T15:09:52.368Z,0.95
2022-09-12T15:12:20.094Z,0.82
2022-09-12T15:14:47.898Z,1.13
2022-09-12T15:17:15.631Z,1.10
2022-09-12T15:19:43.377Z,1.10
2022-09-12T15:22:13.706Z,1.30
2022-09-12T15:24:41.447Z,2.10
2022-09-12T15:27:11.866Z,1.60
2022-09-12T15:29:39.955Z,1.25
2022-09-12T15:32:08.143Z,1.23
2022-09-12T15:34:35.888Z,1.30
2022-09-12T15:37:03.977Z,1.20
2022-09-12T15:39:33.280Z,2.10
2022-09-12T15:42:01.090Z,1.52
2022-09-12T15:44:28.868Z,1.08
2022-09-12T15:46:56.630Z,1.17
2022-09-12T15:49:24.346Z,1.20
2022-09-12T15:51:52.124Z,1.50
2022-09-12T15:54:20.609Z,1.58
2022-09-12T15:56:50.266Z,1.20
2022-09-12T15:59:18.400Z,1.20
2022-09-12T16:01:46.277Z,1.10
2022-09-12T16:04:21.905Z,1.38
2022-09-12T16:06:49.653Z,1.20
2022-09-12T16:09:17.704Z,1.50
2022-09-12T16:11:45.630Z,1.20
2022-09-12T16:14:15.988Z,1.50
2022-09-12T16:16:44.246Z,1.50
2022-09-12T16:19:12.593Z,1.45
2022-09-12T16:21:40.433Z,1.38
2022-09-12T16:24:08.605Z,1.17
2022-09-12T16:26:36.954Z,1.40
2022-09-12T16:29:04.855Z,1.20
2022-09-12T16:31:34.579Z,1.20
2022-09-12T16:34:02.754Z,1.10
2022-09-12T16:36:30.502Z,1.20
2022-09-12T16:38:58.270Z,1.60
2022-09-12T16:41:26.467Z,1.55
2022-09-12T16:43:54.561Z,1.30
2022-09-12T16:46:23.690Z,1.92
2022-09-12T16:48:54.932Z,1.98
2022-09-12T16:51:24.304Z,3.42
2022-09-12T16:53:52.192Z,2.28
2022-09-12T16:56:20.552Z,1.83
2022-09-12T16:58:49.019Z,1.60
2022-09-12T17:01:18.262Z,1.50
2022-09-12T17:03:46.254Z,1.40
2022-09-12T17:06:17.308Z,1.42
2022-09-12T17:08:47.822Z,1.45
2022-09-12T17:11:16.715Z,1.85
2022-09-12T17:14:03.886Z,1.48
2022-09-12T17:16:33.425Z,1.60
2022-09-12T17:19:01.324Z,1.75
2022-09-12T17:21:30.520Z,1.58
2022-09-12T17:24:00.349Z,2.78
2022-09-12T17:26:28.443Z,1.42
2022-09-12T17:28:56.227Z,1.55
2022-09-12T17:31:24.169Z,1.20
2022-09-12T17:33:51.972Z,1.58
2022-09-12T17:36:21.725Z,1.60
2022-09-12T17:38:51.594Z,1.50
2022-09-12T17:41:20.834Z,1.67
2022-09-12T17:43:50.305Z,1.73
2022-09-12T17:46:18.524Z,1.95
2022-09-12T17:48:46.356Z,1.67
2022-09-12T17:51:15.054Z,1.70
2022-09-12T17:53:43.240Z,1.58
2022-09-12T17:56:13.224Z,1.90
2022-09-12T17:58:41.017Z,1.60
2022-09-12T18:01:28.813Z,1.58
2022-09-12T18:03:57.127Z,2.42
2022-09-12T18:06:25.245Z,1.65
2022-09-12T18:08:53.082Z,2.35
2022-09-12T18:11:22.742Z,2.88
2022-09-12T18:13:50.813Z,2.80
2022-09-12T18:16:18.722Z,2.80
2022-09-12T18:18:46.620Z,3.08
2022-09-12T18:21:14.691Z,2.60
2022-09-12T18:23:42.488Z,1.95
2022-09-12T18:26:11.133Z,3.05
2022-09-12T18:28:41.400Z,1.58
2022-09-12T18:31:12.079Z,2.40
2022-09-12T18:33:40.472Z,1.92
2022-09-12T18:36:09.010Z,2.00
2022-09-12T18:38:36.937Z,2.03
2022-09-12T18:41:05.381Z,1.90
2022-09-12T18:43:33.189Z,2.60
2022-09-12T18:46:05.463Z,2.10
2022-09-12T18:48:33.690Z,2.10
2022-09-12T18:51:07.015Z,1.60
2022-09-12T18:53:35.059Z,2.00
2022-09-12T18:56:03.892Z,1.90
2022-09-12T18:58:31.808Z,1.48
2022-09-12T19:00:59.968Z,1.58
2022-09-12T19:03:29.281Z,2.20
2022-09-12T19:05:57.088Z,1.90
2022-09-12T19:08:24.921Z,2.90
2022-09-12T19:10:56.607Z,2.25
2022-09-12T19:13:24.372Z,2.10
2022-09-12T19:15:52.372Z,3.30
2022-09-12T19:18:20.135Z,2.85
2022-09-12T19:20:52.589Z,4.55
2022-09-12T19:23:20.383Z,2.95
2022-09-12T19:25:56.081Z,2.78
2022-09-12T19:28:23.939Z,3.47
2022-09-12T19:30:51.751Z,2.95
2022-09-12T19:33:19.876Z,2.92
2022-09-12T19:35:47.664Z,2.55
2022-09-12T19:38:16.805Z,2.60
2022-09-12T19:40:45.159Z,2.95
2022-09-12T19:43:12.893Z,2.25
2022-09-12T19:45:47.741Z,2.35
2022-09-12T19:48:15.659Z,2.55
2022-09-12T19:50:44.164Z,2.08
2022-09-12T19:53:12.271Z,2.33
2022-09-12T19:55:41.580Z,2.40
2022-09-12T19:58:09.600Z,2.30
2022-09-12T20:00:37.526Z,2.20
2022-09-12T20:03:05.751Z,2.15
2022-09-12T20:05:34.116Z,2.80
2022-09-12T20:08:03.367Z,6.50
2022-09-12T20:10:31.362Z,4.60
2022-09-12T20:13:00.601Z,2.35
2022-09-12T20:15:28.444Z,2.75
2022-09-12T20:17:56.815Z,2.85
2022-09-12T20:20:26.692Z,2.22
2022-09-12T20:22:54.719Z,2.30
2022-09-12T20:25:22.549Z,2.67
2022-09-12T20:27:50.332Z,3.00
2022-09-12T20:30:19.904Z,2.83
2022-09-12T20:32:48.406Z,2.38
2022-09-12T20:35:16.400Z,3.30
2022-09-12T20:37:44.621Z,4.43
2022-09-12T20:40:12.537Z,3.17
2022-09-12T20:42:40.302Z,3.17
2022-09-12T20:45:09.471Z,2.85
2022-09-12T20:47:38.655Z,2.50
2022-09-12T20:50:06.879Z,2.47
2022-09-12T20:52:34.618Z,2.92
2022-09-12T20:55:03.192Z,2.67
2022-09-12T20:57:31.144Z,2.65
2022-09-12T20:59:58.901Z,2.88
2022-09-12T21:02:26.858Z,2.40
2022-09-12T21:04:56.818Z,3.00
2022-09-12T21:07:24.611Z,2.28
2022-09-12T21:09:54.335Z,1.70
2022-09-12T21:12:22.943Z,2.17
2022-09-12T21:14:51.017Z,2.28
2022-09-12T21:17:18.731Z,2.10
2022-09-12T21:19:46.448Z,2.33
2022-09-12T21:22:15.634Z,2.08
2022-09-12T21:24:43.343Z,3.10
2022-09-12T21:27:11.085Z,2.40
2022-09-12T21:29:38.961Z,2.95
2022-09-12T21:32:09.940Z,2.70
2022-09-12T21:34:41.809Z,2.70
2022-09-12T21:37:09.714Z,2.40
2022-09-12T21:39:38.935Z,2.92
2022-09-12T21:42:06.762Z,2.58
2022-09-12T21:44:34.526Z,2.53
2022-09-12T21:47:02.451Z,2.50
2022-09-12T21:49:30.298Z,2.83
2022-09-12T21:51:58.158Z,3.00
2022-09-12T21:54:26.036Z,2.97
2022-09-12T21:56:55.214Z,2.33
2022-09-12T21:59:23.081Z,2.28
2022-09-12T22:01:51.082Z,2.47
2022-09-12T22:04:18.946Z,2.88
2022-09-12T22:06:46.728Z,2.42
2022-09-12T22:09:16.944Z,2.70
2022-09-12T22:11:45.090Z,3.15
2022-09-12T22:14:14.213Z,3.47
2022-09-12T22:16:41.964Z,4.18
2022-09-12T22:19:09.746Z,3.72
2022-09-12T22:21:57.499Z,4.55
2022-09-12T22:24:30.242Z,5.25
2022-09-12T22:26:59.065Z,5.78
2022-09-12T22:29:28.167Z,4.40
2022-09-12T22:31:55.951Z,4.60
2022-09-12T22:34:23.662Z,4.65
2022-09-12T22:36:51.451Z,4.65
2022-09-12T22:39:19.167Z,4.30
2022-09-12T22:41:46.983Z,4.82
2022-09-12T22:44:14.781Z,4.70
2022-09-12T22:46:43.971Z,8.45
2022-09-12T22:49:11.850Z,5.25
2022-09-12T22:51:39.737Z,3.60
2022-09-12T22:54:07.846Z,3.10
2022-09-12T22:56:35.771Z,3.22
2022-09-12T22:59:03.667Z,3.92
2022-09-12T23:01:31.917Z,3.58
2022-09-12T23:04:01.140Z,3.60
2022-09-12T23:06:29.300Z,3.92
2022-09-12T23:08:57.795Z,3.50
2022-09-12T23:11:25.543Z,3.83
2022-09-12T23:13:53.456Z,3.40
2022-09-12T23:16:22.166Z,4.03
2022-09-12T23:18:50.081Z,3.80
2022-09-12T23:21:20.333Z,3.00
2022-09-12T23:23:48.154Z,3.85
2022-09-12T23:26:17.301Z,3.70
2022-09-12T23:28:49.096Z,3.40
2022-09-12T23:31:17.524Z,3.35
2022-09-12T23:33:45.582Z,3.58
2022-09-12T23:36:14.513Z,3.30
2022-09-12T23:38:44.635Z,3.20
2022-09-12T23:41:12.997Z,3.78
2022-09-12T23:43:40.814Z,3.10
2022-09-12T23:46:08.589Z,3.40
2022-09-12T23:48:36.678Z,3.67
2022-09-12T23:51:04.720Z,3.10
2022-09-12T23:53:32.870Z,3.10
2022-09-12T23:56:02.316Z,3.63
2022-09-12T23:58:32.936Z,2.92
